createdAt,value
2023-02-11T00:01:31.253Z,6.45
2023-02-11T00:04:00.188Z,6.17
2023-02-11T00:06:30.500Z,6.80
2023-02-11T00:08:58.557Z,6.63
2023-02-11T00:11:30.937Z,6.55
2023-02-11T00:14:01.740Z,6.90
2023-02-11T00:16:32.236Z,6.60
2023-02-11T00:19:01.454Z,7.00
2023-02-11T00:21:29.587Z,6.97
2023-02-11T00:24:00.268Z,7.30
2023-02-11T00:26:31.932Z,6.95
2023-02-11T00:29:01.148Z,7.23
2023-02-11T00:31:29.759Z,6.65
2023-02-11T00:33:58.246Z,7.30
2023-02-11T00:36:29.256Z,6.93
2023-02-11T00:38:58.503Z,6.60
2023-02-11T00:41:27.683Z,6.73
2023-02-11T00:43:55.878Z,6.45
2023-02-11T00:46:24.444Z,7.05
2023-02-11T00:48:55.283Z,6.97
2023-02-11T00:51:23.460Z,7.07
2023-02-11T00:53:51.793Z,6.20
2023-02-11T00:56:20.423Z,7.03
2023-02-11T00:58:48.696Z,6.70
2023-02-11T01:01:18.255Z,6.38
2023-02-11T01:03:46.191Z,6.60
2023-02-11T01:06:14.535Z,6.57
2023-02-11T01:08:42.440Z,6.93
2023-02-11T01:11:18.121Z,6.80
2023-02-11T01:13:47.525Z,6.75
2023-02-11T01:16:17.375Z,6.65
2023-02-11T01:18:46.623Z,6.97
2023-02-11T01:21:15.412Z,6.28
2023-02-11T01:23:44.209Z,6.45
2023-02-11T01:26:13.270Z,6.30
2023-02-11T01:28:41.163Z,6.32
2023-02-11T01:31:09.221Z,6.37
2023-02-11T01:33:37.644Z,6.35
2023-02-11T01:36:08.267Z,6.45
2023-02-11T01:38:36.829Z,6.43
2023-02-11T01:41:10.665Z,6.10
2023-02-11T01:43:50.285Z,6.17
2023-02-11T01:46:25.300Z,5.97
2023-02-11T01:49:12.158Z,5.43
2023-02-11T01:51:48.972Z,5.40
2023-02-11T01:54:39.122Z,6.15
2023-02-11T01:57:23.601Z,5.37
2023-02-11T02:00:07.538Z,6.20
2023-02-11T02:03:03.467Z,5.50
2023-02-11T02:05:47.005Z,5.65
2023-02-11T02:08:32.438Z,5.68
2023-02-11T02:11:04.023Z,5.63
2023-02-11T02:13:34.151Z,6.05
2023-02-11T02:16:09.946Z,6.20
2023-02-11T02:18:43.768Z,5.50
2023-02-11T02:21:36.433Z,5.93
2023-02-11T02:24:22.541Z,5.10
2023-02-11T02:27:14.656Z,5.30
2023-02-11T02:30:39.538Z,5.65
2023-02-11T02:33:22.488Z,5.68
2023-02-11T02:36:12.066Z,5.53
2023-02-11T02:38:54.985Z,5.53
2023-02-11T02:41:33.979Z,5.78
2023-02-11T02:44:02.873Z,5.75
2023-02-11T02:46:34.101Z,5.50
2023-02-11T02:49:03.360Z,5.43
2023-02-11T02:51:57.076Z,4.77
2023-02-11T02:54:46.063Z,5.28
2023-02-11T02:57:46.603Z,5.72
2023-02-11T03:00:35.206Z,5.00
2023-02-11T03:03:49.821Z,5.18
2023-02-11T03:06:34.915Z,4.90
2023-02-11T03:09:12.203Z,4.90
2023-02-11T03:11:41.362Z,5.38
2023-02-11T03:14:16.053Z,5.15
2023-02-11T03:16:46.319Z,5.80
2023-02-11T03:19:20.515Z,5.87
2023-02-11T03:21:52.596Z,5.45
2023-02-11T03:24:30.403Z,5.80
2023-02-11T03:27:04.509Z,5.22
2023-02-11T03:29:41.050Z,5.35
2023-02-11T03:32:18.365Z,5.10
2023-02-11T03:35:04.252Z,5.32
2023-02-11T03:37:38.065Z,5.35
2023-02-11T03:40:19.570Z,5.22
2023-02-11T03:42:55.705Z,5.53
2023-02-11T03:45:25.859Z,5.23
2023-02-11T03:48:20.668Z,5.88
2023-02-11T03:50:50.831Z,5.80
2023-02-11T03:53:20.348Z,5.38
2023-02-11T03:55:50.646Z,5.50
2023-02-11T03:58:19.332Z,5.60
2023-02-11T04:00:47.498Z,5.65
2023-02-11T04:03:15.589Z,5.50
2023-02-11T04:05:43.565Z,6.00
2023-02-11T04:08:11.583Z,6.53
2023-02-11T04:10:39.566Z,6.23
2023-02-11T04:13:07.627Z,6.07
2023-02-11T04:15:35.645Z,6.03
2023-02-11T04:18:03.944Z,6.85
2023-02-11T04:20:31.748Z,6.10
2023-02-11T04:22:59.690Z,6.20
2023-02-11T04:25:28.044Z,6.35
2023-02-11T04:27:56.001Z,5.53
2023-02-11T04:30:23.902Z,6.03
2023-02-11T04:32:51.916Z,6.20
2023-02-11T04:35:19.776Z,5.77
2023-02-11T04:37:48.195Z,5.72
2023-02-11T04:40:16.080Z,5.97
2023-02-11T04:42:44.043Z,6.30
2023-02-11T04:45:11.820Z,6.07
2023-02-11T04:47:39.952Z,5.60
2023-02-11T04:50:07.790Z,5.72
2023-02-11T04:52:36.016Z,6.07
2023-02-11T04:55:03.837Z,5.97
2023-02-11T04:57:31.670Z,6.40
2023-02-11T04:59:59.697Z,5.57
2023-02-11T05:02:27.832Z,6.00
2023-02-11T05:04:55.761Z,5.78
2023-02-11T05:07:23.788Z,5.78
2023-02-11T05:09:51.760Z,5.88
2023-02-11T05:12:19.862Z,5.93
2023-02-11T05:14:47.895Z,5.63
2023-02-11T05:17:15.976Z,6.07
2023-02-11T05:19:44.125Z,5.93
2023-02-11T05:22:12.042Z,5.90
2023-02-11T05:24:40.146Z,5.80
2023-02-11T05:27:07.923Z,5.50
2023-02-11T05:29:35.935Z,5.95
2023-02-11T05:32:03.936Z,5.95
2023-02-11T05:34:32.030Z,5.68
2023-02-11T05:37:00.027Z,6.07
2023-02-11T05:39:29.688Z,5.93
2023-02-11T05:41:57.727Z,5.47
2023-02-11T05:44:25.959Z,5.90
2023-02-11T05:46:53.842Z,5.38
2023-02-11T05:49:21.813Z,5.43
2023-02-11T05:51:50.100Z,5.50
2023-02-11T05:54:18.176Z,5.18
2023-02-11T05:56:46.060Z,5.63
2023-02-11T05:59:19.716Z,5.53
2023-02-11T06:01:47.664Z,5.50
2023-02-11T06:04:15.421Z,5.47
2023-02-11T06:06:43.282Z,5.50
2023-02-11T06:09:12.458Z,5.95
2023-02-11T06:11:40.477Z,6.05
2023-02-11T06:14:08.380Z,5.67
2023-02-11T06:16:36.439Z,5.93
2023-02-11T06:19:04.505Z,5.50
2023-02-11T06:21:43.330Z,5.70
2023-02-11T06:24:13.030Z,5.47
2023-02-11T06:26:41.132Z,6.00
2023-02-11T06:29:09.287Z,5.90
2023-02-11T06:31:39.502Z,6.35
2023-02-11T06:34:09.168Z,5.75
2023-02-11T06:36:39.896Z,5.82
2023-02-11T06:39:08.331Z,5.77
2023-02-11T06:41:38.459Z,6.22
2023-02-11T06:44:06.553Z,6.20
2023-02-11T06:46:34.498Z,6.07
2023-02-11T06:49:02.886Z,6.22
2023-02-11T06:51:30.717Z,6.30
2023-02-11T06:53:58.535Z,6.38
2023-02-11T06:56:29.254Z,5.72
2023-02-11T06:58:57.895Z,5.85
2023-02-11T07:01:27.368Z,6.00
2023-02-11T07:03:55.823Z,5.80
2023-02-11T07:06:27.667Z,5.80
2023-02-11T07:08:56.495Z,6.15
2023-02-11T07:11:28.025Z,6.20
2023-02-11T07:14:00.227Z,6.60
2023-02-11T07:16:28.350Z,6.70
2023-02-11T07:18:56.162Z,6.50
2023-02-11T07:21:27.713Z,6.80
2023-02-11T07:23:56.014Z,6.75
2023-02-11T07:26:26.211Z,6.82
2023-02-11T07:28:55.188Z,6.80
2023-02-11T07:31:26.146Z,6.50
2023-02-11T07:33:56.229Z,6.68
2023-02-11T07:36:24.629Z,6.57
2023-02-11T07:38:52.656Z,6.90
2023-02-11T07:41:23.016Z,6.97
2023-02-11T07:43:51.398Z,6.07
2023-02-11T07:46:24.805Z,6.65
2023-02-11T07:48:53.673Z,6.55
2023-02-11T07:51:27.032Z,6.88
2023-02-11T07:53:56.092Z,6.73
2023-02-11T07:56:24.365Z,6.72
2023-02-11T07:58:52.188Z,6.43
2023-02-11T08:01:25.632Z,6.28
2023-02-11T08:03:54.312Z,6.85
2023-02-11T08:06:24.632Z,6.20
2023-02-11T08:08:53.238Z,6.07
2023-02-11T08:11:24.229Z,6.43
2023-02-11T08:13:52.959Z,5.47
2023-02-11T08:16:26.721Z,5.18
2023-02-11T08:18:57.998Z,5.03
2023-02-11T08:21:26.612Z,5.00
2023-02-11T08:23:54.718Z,5.55
2023-02-11T08:26:30.633Z,5.70
2023-02-11T08:28:59.113Z,5.28
2023-02-11T08:31:34.752Z,4.93
2023-02-11T08:34:03.199Z,4.95
2023-02-11T08:36:34.647Z,5.50
2023-02-11T08:39:17.906Z,5.35
2023-02-11T08:41:51.936Z,5.60
2023-02-11T08:44:21.755Z,5.23
2023-02-11T08:46:50.584Z,5.32
2023-02-11T08:49:18.796Z,5.68
2023-02-11T08:51:47.469Z,6.15
2023-02-11T08:54:16.749Z,5.10
2023-02-11T08:56:45.119Z,5.13
2023-02-11T08:59:18.110Z,5.65
2023-02-11T09:01:47.755Z,4.90
2023-02-11T09:04:15.817Z,5.10
2023-02-11T09:06:43.757Z,4.55
2023-02-11T09:09:14.233Z,4.80
2023-02-11T09:11:44.023Z,4.90
2023-02-11T09:14:23.773Z,4.78
2023-02-11T09:16:53.680Z,4.90
2023-02-11T09:19:23.558Z,5.03
2023-02-11T09:21:51.632Z,4.87
2023-02-11T09:24:19.744Z,5.03
2023-02-11T09:26:47.987Z,4.20
2023-02-11T09:29:15.755Z,4.70
2023-02-11T09:31:44.047Z,4.80
2023-02-11T09:34:13.032Z,5.00
2023-02-11T09:36:42.236Z,4.55
2023-02-11T09:39:14.157Z,4.53
2023-02-11T09:42:09.152Z,4.80
2023-02-11T09:44:41.054Z,4.80
2023-02-11T09:47:29.616Z,5.00
2023-02-11T09:50:13.868Z,4.10
2023-02-11T09:53:05.962Z,4.40
2023-02-11T09:55:47.030Z,4.50
2023-02-11T09:58:21.672Z,4.05
2023-02-11T10:00:52.801Z,4.47
2023-02-11T10:03:49.846Z,4.07
2023-02-11T10:06:39.069Z,4.28
2023-02-11T10:09:07.257Z,4.60
2023-02-11T10:11:37.798Z,4.50
2023-02-11T10:14:08.859Z,4.53
2023-02-11T10:16:55.071Z,4.35
2023-02-11T10:19:34.854Z,4.50
2023-02-11T10:22:08.707Z,4.85
2023-02-11T10:24:38.026Z,4.47
2023-02-11T10:27:19.955Z,4.83
2023-02-11T10:29:57.527Z,4.40
2023-02-11T10:32:38.471Z,4.32
2023-02-11T10:35:18.766Z,4.15
2023-02-11T10:37:47.011Z,4.40
2023-02-11T10:40:21.929Z,4.40
2023-02-11T10:42:55.551Z,4.00
2023-02-11T10:45:44.816Z,4.35
2023-02-11T10:48:47.048Z,4.40
2023-02-11T10:51:21.817Z,4.47
2023-02-11T10:54:19.991Z,4.70
2023-02-11T10:56:59.655Z,4.05
2023-02-11T10:59:28.278Z,5.00
2023-02-11T11:02:02.568Z,4.60
2023-02-11T11:04:46.588Z,4.80
2023-02-11T11:07:17.831Z,4.67
2023-02-11T11:09:55.943Z,4.72
2023-02-11T11:12:48.037Z,4.45
2023-02-11T11:15:29.114Z,5.03
2023-02-11T11:18:24.064Z,4.45
2023-02-11T11:21:01.745Z,4.60
2023-02-11T11:23:37.293Z,4.65
2023-02-11T11:26:16.040Z,5.00
2023-02-11T11:28:59.521Z,4.72
2023-02-11T11:31:49.327Z,5.22
2023-02-11T11:34:27.933Z,4.93
2023-02-11T11:36:58.663Z,4.97
2023-02-11T11:39:32.706Z,4.70
2023-02-11T11:42:06.274Z,4.82
2023-02-11T11:44:40.347Z,5.00
2023-02-11T11:47:23.214Z,4.87
2023-02-11T11:50:04.288Z,5.28
2023-02-11T11:52:46.683Z,4.85
2023-02-11T11:55:39.896Z,4.75
2023-02-11T11:58:19.645Z,4.90
2023-02-11T12:01:30.216Z,5.30
2023-02-11T12:04:19.803Z,5.55
2023-02-11T12:06:59.894Z,4.72
2023-02-11T12:09:33.313Z,5.25
2023-02-11T12:12:16.469Z,5.30
2023-02-11T12:15:00.344Z,5.63
2023-02-11T12:17:49.269Z,5.20
2023-02-11T12:20:26.527Z,5.75
2023-02-11T12:23:21.921Z,6.10
2023-02-11T12:26:05.260Z,6.68
2023-02-11T12:29:01.213Z,6.07
2023-02-11T12:31:56.319Z,6.10
2023-02-11T12:34:27.031Z,6.00
2023-02-11T12:37:25.562Z,5.38
2023-02-11T12:40:35.136Z,5.60
2023-02-11T12:43:18.034Z,6.23
2023-02-11T12:45:58.784Z,6.03
2023-02-11T12:48:54.820Z,6.10
2023-02-11T12:51:32.661Z,5.75
2023-02-11T12:54:26.205Z,6.38
2023-02-11T12:57:02.943Z,6.53
2023-02-11T12:59:38.963Z,6.55
2023-02-11T13:02:20.993Z,6.40
2023-02-11T13:04:54.604Z,6.80
2023-02-11T13:07:35.426Z,6.55
2023-02-11T13:10:16.012Z,6.80
2023-02-11T13:13:07.922Z,6.20
2023-02-11T13:15:36.288Z,6.50
2023-02-11T13:18:35.955Z,6.13
2023-02-11T13:21:15.911Z,6.72
2023-02-11T13:24:24.981Z,6.20
2023-02-11T13:27:23.412Z,5.07
2023-02-11T13:30:25.551Z,5.30
2023-02-11T13:32:56.433Z,5.18
2023-02-11T13:35:37.932Z,5.88
2023-02-11T13:38:18.532Z,5.70
2023-02-11T13:40:58.163Z,5.47
2023-02-11T13:43:29.106Z,6.25
2023-02-11T13:46:23.292Z,5.85
2023-02-11T13:48:53.601Z,6.10
2023-02-11T13:51:48.703Z,6.43
2023-02-11T13:54:53.154Z,6.22
2023-02-11T13:57:21.106Z,6.97
2023-02-11T13:59:52.477Z,6.03
2023-02-11T14:02:55.058Z,6.00
2023-02-11T14:05:50.428Z,6.50
2023-02-11T14:08:44.150Z,5.70
2023-02-11T14:11:33.685Z,5.57
2023-02-11T14:14:15.214Z,5.20
2023-02-11T14:17:07.160Z,5.68
2023-02-11T14:19:35.433Z,5.50
2023-02-11T14:22:19.328Z,5.30
2023-02-11T14:25:03.078Z,5.20
2023-02-11T14:27:47.253Z,5.28
2023-02-11T14:30:51.391Z,5.35
2023-02-11T14:34:01.565Z,5.70
2023-02-11T14:36:55.623Z,5.78
2023-02-11T14:39:45.656Z,5.32
2023-02-11T14:42:23.217Z,5.13
2023-02-11T14:44:53.327Z,4.70
2023-02-11T14:47:36.433Z,5.10
2023-02-11T14:50:07.854Z,5.20
2023-02-11T14:52:39.274Z,6.47
2023-02-11T14:55:13.575Z,5.13
2023-02-11T14:57:45.187Z,5.35
2023-02-11T15:00:22.766Z,5.30
2023-02-11T15:02:51.093Z,5.00
2023-02-11T15:05:22.893Z,5.32
2023-02-11T15:07:54.998Z,5.45
2023-02-11T15:10:44.106Z,4.70
2023-02-11T15:13:21.624Z,5.40
2023-02-11T15:15:52.862Z,5.35
2023-02-11T15:18:25.559Z,5.10
2023-02-11T15:20:54.055Z,4.65
2023-02-11T15:23:27.805Z,5.30
2023-02-11T15:26:03.375Z,5.00
2023-02-11T15:28:36.076Z,4.80
2023-02-11T15:31:16.293Z,5.18
2023-02-11T15:33:44.969Z,4.97
2023-02-11T15:36:14.095Z,4.40
2023-02-11T15:38:42.615Z,4.67
2023-02-11T15:41:35.914Z,4.63
2023-02-11T15:44:04.791Z,4.55
2023-02-11T15:46:40.447Z,4.00
2023-02-11T15:49:19.746Z,4.75
2023-02-11T15:51:48.179Z,4.20
2023-02-11T15:54:22.851Z,4.97
2023-02-11T15:56:55.776Z,4.60
2023-02-11T15:59:41.466Z,4.75
2023-02-11T16:02:22.528Z,5.28
2023-02-11T16:05:10.183Z,4.80
2023-02-11T16:07:43.528Z,4.93
2023-02-11T16:10:25.148Z,4.70
2023-02-11T16:13:02.136Z,4.80
2023-02-11T16:15:42.637Z,4.50
2023-02-11T16:18:37.655Z,4.60
2023-02-11T16:21:17.370Z,5.15
2023-02-11T16:23:58.021Z,5.97
2023-02-11T16:26:29.547Z,6.10
2023-02-11T16:29:12.071Z,7.43
2023-02-11T16:31:43.598Z,7.30
2023-02-11T16:34:25.339Z,8.93
2023-02-11T16:36:54.002Z,9.82
2023-02-11T16:39:22.738Z,7.20
2023-02-11T16:41:52.194Z,6.30
2023-02-11T16:44:20.857Z,6.23
2023-02-11T16:46:49.283Z,6.47
2023-02-11T16:49:31.770Z,6.45
2023-02-11T16:52:02.781Z,6.57
2023-02-11T16:54:31.453Z,6.47
2023-02-11T16:56:59.361Z,6.80
2023-02-11T16:59:27.359Z,7.03
2023-02-11T17:01:55.856Z,7.45
2023-02-11T17:04:28.706Z,7.55
2023-02-11T17:06:58.496Z,8.00
2023-02-11T17:09:30.831Z,8.47
2023-02-11T17:11:59.474Z,8.23
2023-02-11T17:14:27.307Z,8.77
2023-02-11T17:16:55.482Z,8.43
2023-02-11T17:19:23.360Z,8.55
2023-02-11T17:21:53.702Z,8.53
2023-02-11T17:24:22.933Z,8.82
2023-02-11T17:26:51.485Z,10.95
2023-02-11T17:29:22.392Z,12.20
2023-02-11T17:31:52.405Z,13.43
2023-02-11T17:34:21.970Z,12.40
2023-02-11T17:36:51.022Z,13.25
2023-02-11T17:39:21.402Z,14.07
2023-02-11T17:41:49.423Z,14.40
2023-02-11T17:44:17.452Z,14.38
2023-02-11T17:46:45.607Z,13.63
2023-02-11T17:49:13.444Z,13.10
2023-02-11T17:51:41.620Z,14.50
2023-02-11T17:54:17.286Z,14.70
2023-02-11T17:56:49.330Z,15.88
2023-02-11T17:59:18.547Z,17.90
2023-02-11T18:01:47.616Z,19.83
2023-02-11T18:04:19.327Z,21.75
2023-02-11T18:06:47.899Z,20.45
2023-02-11T18:09:15.755Z,18.90
2023-02-11T18:11:43.885Z,18.97
2023-02-11T18:14:12.474Z,20.05
2023-02-11T18:16:43.399Z,19.33
2023-02-11T18:19:12.785Z,17.67
2023-02-11T18:21:41.294Z,17.00
2023-02-11T18:24:09.317Z,16.73
2023-02-11T18:26:37.554Z,16.33
2023-02-11T18:29:07.296Z,17.92
2023-02-11T18:31:36.789Z,18.50
2023-02-11T18:34:07.918Z,17.55
2023-02-11T18:36:36.283Z,16.93
2023-02-11T18:39:06.145Z,17.00
2023-02-11T18:41:34.639Z,17.50
2023-02-11T18:44:03.538Z,17.65
2023-02-11T18:46:31.896Z,17.67
2023-02-11T18:48:59.925Z,16.37
2023-02-11T18:51:28.433Z,16.05
2023-02-11T18:53:56.416Z,15.85
2023-02-11T18:56:26.469Z,16.92
2023-02-11T18:58:56.491Z,18.13
2023-02-11T19:01:27.959Z,18.43
2023-02-11T19:03:57.799Z,17.05
2023-02-11T19:06:28.311Z,16.63
2023-02-11T19:09:00.043Z,16.73
2023-02-11T19:11:52.894Z,15.80
2023-02-11T19:14:26.222Z,16.23
2023-02-11T19:16:57.520Z,18.25
2023-02-11T19:19:28.671Z,17.50
2023-02-11T19:21:58.489Z,18.30
2023-02-11T19:24:27.336Z,26.98
2023-02-11T19:26:59.077Z,30.43
2023-02-11T19:29:27.462Z,23.30
2023-02-11T19:31:56.093Z,22.83
2023-02-11T19:34:24.749Z,22.67
2023-02-11T19:36:54.511Z,22.85
2023-02-11T19:39:25.086Z,21.60
2023-02-11T19:41:54.286Z,20.38
2023-02-11T19:44:22.296Z,22.58
2023-02-11T19:46:53.638Z,20.92
2023-02-11T19:49:26.247Z,20.17
2023-02-11T19:51:58.073Z,19.37
2023-02-11T19:54:27.342Z,20.00
2023-02-11T19:56:55.453Z,20.50
2023-02-11T19:59:24.140Z,21.40
2023-02-11T20:01:53.509Z,22.80
2023-02-11T20:04:21.855Z,22.80
2023-02-11T20:06:49.954Z,21.10
2023-02-11T20:09:17.913Z,20.42
2023-02-11T20:11:45.679Z,22.85
2023-02-11T20:14:15.647Z,25.00
2023-02-11T20:16:48.755Z,25.90
2023-02-11T20:19:20.437Z,28.47
2023-02-11T20:21:52.319Z,28.48
2023-02-11T20:24:21.126Z,28.90
2023-02-11T20:26:49.616Z,27.77
2023-02-11T20:29:18.898Z,25.85
2023-02-11T20:31:47.132Z,24.27
2023-02-11T20:34:17.377Z,23.77
2023-02-11T20:36:52.446Z,22.50
2023-02-11T20:39:22.682Z,23.17
2023-02-11T20:41:51.682Z,22.58
2023-02-11T20:44:23.450Z,23.30
2023-02-11T20:46:54.622Z,23.63
2023-02-11T20:49:24.918Z,23.45
2023-02-11T20:51:54.353Z,23.65
2023-02-11T20:54:24.284Z,25.33
2023-02-11T20:56:54.220Z,27.05
2023-02-11T20:59:23.162Z,27.80
2023-02-11T21:01:55.996Z,28.23
2023-02-11T21:04:30.194Z,28.52
2023-02-11T21:07:00.994Z,27.83
2023-02-11T21:09:32.538Z,26.55
2023-02-11T21:12:01.074Z,24.37
2023-02-11T21:14:29.742Z,24.58
2023-02-11T21:16:58.583Z,23.30
2023-02-11T21:19:27.068Z,21.92
2023-02-11T21:21:57.589Z,20.52
2023-02-11T21:24:25.885Z,22.13
2023-02-11T21:26:54.061Z,19.27
2023-02-11T21:29:22.091Z,19.70
2023-02-11T21:31:50.135Z,19.65
2023-02-11T21:34:18.397Z,19.08
2023-02-11T21:36:46.728Z,17.63
2023-02-11T21:39:14.965Z,16.73
2023-02-11T21:41:43.003Z,15.75
2023-02-11T21:44:10.980Z,15.82
2023-02-11T21:46:38.961Z,15.27
2023-02-11T21:49:07.051Z,15.07
2023-02-11T21:51:35.036Z,14.32
2023-02-11T21:54:06.642Z,14.25
2023-02-11T21:56:36.016Z,13.13
2023-02-11T21:59:04.335Z,12.27
2023-02-11T22:01:35.790Z,12.02
2023-02-11T22:04:04.133Z,11.27
2023-02-11T22:06:34.650Z,11.95
2023-02-11T22:09:07.595Z,12.52
2023-02-11T22:11:35.999Z,12.55
2023-02-11T22:14:04.385Z,11.15
2023-02-11T22:16:33.231Z,11.03
2023-02-11T22:19:02.909Z,11.00
2023-02-11T22:21:31.203Z,11.20
2023-02-11T22:23:59.225Z,10.77
2023-02-11T22:26:28.779Z,10.55
2023-02-11T22:28:57.225Z,10.33
2023-02-11T22:31:29.028Z,9.52
2023-02-11T22:33:57.563Z,10.27
2023-02-11T22:36:28.643Z,10.32
2023-02-11T22:39:00.329Z,10.13
2023-02-11T22:41:29.301Z,10.70
2023-02-11T22:43:57.377Z,10.07
2023-02-11T22:46:26.385Z,11.27
2023-02-11T22:48:54.431Z,11.48
2023-02-11T22:51:25.493Z,10.48
2023-02-11T22:53:55.902Z,10.13
2023-02-11T22:56:24.156Z,10.32
2023-02-11T22:58:53.615Z,10.60
2023-02-11T23:01:21.741Z,9.98
2023-02-11T23:03:49.617Z,10.13
2023-02-11T23:06:18.291Z,9.73
2023-02-11T23:08:46.728Z,9.48
2023-02-11T23:11:21.007Z,10.30
2023-02-11T23:13:50.964Z,9.10
2023-02-11T23:16:24.789Z,9.50
2023-02-11T23:18:55.352Z,8.90
2023-02-11T23:21:26.460Z,8.30
2023-02-11T23:23:56.668Z,7.75
2023-02-11T23:26:25.183Z,8.05
2023-02-11T23:28:53.433Z,8.55
2023-02-11T23:31:24.823Z,8.70
2023-02-11T23:33:53.727Z,8.88
2023-02-11T23:36:22.878Z,8.63
2023-02-11T23:38:51.901Z,8.77
2023-02-11T23:41:20.873Z,8.77
2023-02-11T23:43:54.964Z,8.88
2023-02-11T23:46:24.305Z,8.80
2023-02-11T23:48:52.933Z,8.77
2023-02-11T23:51:22.281Z,8.68
2023-02-11T23:53:51.224Z,8.48
2023-02-11T23:56:23.269Z,8.32
2023-02-11T23:58:53.835Z,8.65
